sensor_id;sensor_type;location;lat;lon;timestamp;P1;durP1;ratioP1;P2;durP2;ratioP2
59310;SDS011;45078;51.654;21.250;2023-05-06T00:00:37;6.75;;;2.92;;
59310;SDS011;45078;51.654;21.250;2023-05-06T00:03:03;6.70;;;3.10;;
59310;SDS011;45078;51.654;21.250;2023-05-06T00:05:29;9.75;;;3.67;;
59310;SDS011;45078;51.654;21.250;2023-05-06T00:07:55;7.90;;;3.33;;
59310;SDS011;45078;51.654;21.250;2023-05-06T00:10:20;9.80;;;3.65;;
59310;SDS011;45078;51.654;21.250;2023-05-06T00:12:46;7.15;;;3.70;;
59310;SDS011;45078;51.654;21.250;2023-05-06T00:15:12;9.15;;;3.78;;
59310;SDS011;45078;51.654;21.250;2023-05-06T00:17:38;8.25;;;3.80;;
59310;SDS011;45078;51.654;21.250;2023-05-06T00:20:04;8.48;;;3.75;;
59310;SDS011;45078;51.654;21.250;2023-05-06T00:22:30;7.68;;;3.28;;
59310;SDS011;45078;51.654;21.250;2023-05-06T00:24:56;10.20;;;3.88;;
59310;SDS011;45078;51.654;21.250;2023-05-06T00:27:22;7.68;;;3.17;;
59310;SDS011;45078;51.654;21.250;2023-05-06T00:29:47;8.68;;;3.00;;
59310;SDS011;45078;51.654;21.250;2023-05-06T00:32:13;6.50;;;3.20;;
59310;SDS011;45078;51.654;21.250;2023-05-06T00:34:39;7.32;;;3.33;;
59310;SDS011;45078;51.654;21.250;2023-05-06T00:37:05;6.07;;;2.90;;
59310;SDS011;45078;51.654;21.250;2023-05-06T00:39:31;5.65;;;2.67;;
59310;SDS011;45078;51.654;21.250;2023-05-06T00:42:00;9.32;;;3.13;;
59310;SDS011;45078;51.654;21.250;2023-05-06T00:44:27;4.55;;;2.28;;
59310;SDS011;45078;51.654;21.250;2023-05-06T00:46:54;16.23;;;3.28;;
59310;SDS011;45078;51.654;21.250;2023-05-06T00:49:20;6.55;;;2.63;;
59310;SDS011;45078;51.654;21.250;2023-05-06T00:51:46;7.00;;;2.67;;
59310;SDS011;45078;51.654;21.250;2023-05-06T00:54:12;4.50;;;2.20;;
59310;SDS011;45078;51.654;21.250;2023-05-06T00:56:39;5.53;;;2.58;;
59310;SDS011;45078;51.654;21.250;2023-05-06T00:59:05;5.15;;;2.50;;
59310;SDS011;45078;51.654;21.250;2023-05-06T01:01:31;4.32;;;2.28;;
59310;SDS011;45078;51.654;21.250;2023-05-06T01:03:57;9.77;;;2.70;;
59310;SDS011;45078;51.654;21.250;2023-05-06T01:12:06;4.10;;;2.00;;
59310;SDS011;45078;51.654;21.250;2023-05-06T01:17:57;5.78;;;2.50;;
59310;SDS011;45078;51.654;21.250;2023-05-06T01:20:28;4.53;;;2.50;;
59310;SDS011;45078;51.654;21.250;2023-05-06T01:22:55;6.20;;;2.35;;
59310;SDS011;45078;51.654;21.250;2023-05-06T01:25:21;6.70;;;2.33;;
59310;SDS011;45078;51.654;21.250;2023-05-06T01:27:47;5.53;;;2.35;;
59310;SDS011;45078;51.654;21.250;2023-05-06T01:30:15;3.22;;;2.08;;
59310;SDS011;45078;51.654;21.250;2023-05-06T01:32:54;3.10;;;2.00;;
59310;SDS011;45078;51.654;21.250;2023-05-06T01:40:57;6.07;;;2.70;;
59310;SDS011;45078;51.654;21.250;2023-05-06T01:43:27;4.65;;;2.58;;
59310;SDS011;45078;51.654;21.250;2023-05-06T01:45:57;8.50;;;3.03;;
59310;SDS011;45078;51.654;21.250;2023-05-06T01:48:27;9.43;;;3.30;;
59310;SDS011;45078;51.654;21.250;2023-05-06T01:50:54;5.32;;;2.60;;
59310;SDS011;45078;51.654;21.250;2023-05-06T01:53:20;7.03;;;3.20;;
59310;SDS011;45078;51.654;21.250;2023-05-06T01:55:46;7.20;;;3.05;;
59310;SDS011;45078;51.654;21.250;2023-05-06T01:58:13;8.55;;;3.58;;
59310;SDS011;45078;51.654;21.250;2023-05-06T02:00:39;8.23;;;3.60;;
59310;SDS011;45078;51.654;21.250;2023-05-06T02:03:05;5.65;;;2.67;;
59310;SDS011;45078;51.654;21.250;2023-05-06T02:05:30;7.97;;;3.60;;
59310;SDS011;45078;51.654;21.250;2023-05-06T02:07:56;5.90;;;3.20;;
59310;SDS011;45078;51.654;21.250;2023-05-06T02:10:22;6.15;;;2.83;;
59310;SDS011;45078;51.654;21.250;2023-05-06T02:12:47;8.35;;;2.88;;
59310;SDS011;45078;51.654;21.250;2023-05-06T02:15:13;6.28;;;3.35;;
59310;SDS011;45078;51.654;21.250;2023-05-06T02:17:39;5.45;;;2.97;;
59310;SDS011;45078;51.654;21.250;2023-05-06T02:20:05;14.75;;;2.95;;
59310;SDS011;45078;51.654;21.250;2023-05-06T02:22:33;6.47;;;3.30;;
59310;SDS011;45078;51.654;21.250;2023-05-06T02:24:59;4.57;;;2.47;;
59310;SDS011;45078;51.654;21.250;2023-05-06T02:27:25;5.45;;;2.22;;
59310;SDS011;45078;51.654;21.250;2023-05-06T02:29:51;5.43;;;2.58;;
59310;SDS011;45078;51.654;21.250;2023-05-06T02:32:17;6.75;;;2.47;;
59310;SDS011;45078;51.654;21.250;2023-05-06T02:34:43;4.18;;;2.45;;
59310;SDS011;45078;51.654;21.250;2023-05-06T02:37:09;3.88;;;2.22;;
59310;SDS011;45078;51.654;21.250;2023-05-06T02:39:34;7.25;;;2.10;;
59310;SDS011;45078;51.654;21.250;2023-05-06T02:42:00;3.58;;;2.10;;
59310;SDS011;45078;51.654;21.250;2023-05-06T02:44:26;4.10;;;2.03;;
59310;SDS011;45078;51.654;21.250;2023-05-06T02:46:52;3.92;;;2.60;;
59310;SDS011;45078;51.654;21.250;2023-05-06T02:49:18;3.85;;;1.95;;
59310;SDS011;45078;51.654;21.250;2023-05-06T02:51:44;4.68;;;1.75;;
59310;SDS011;45078;51.654;21.250;2023-05-06T02:54:09;4.45;;;2.00;;
59310;SDS011;45078;51.654;21.250;2023-05-06T02:56:35;3.65;;;2.00;;
59310;SDS011;45078;51.654;21.250;2023-05-06T02:59:02;4.53;;;2.10;;
59310;SDS011;45078;51.654;21.250;2023-05-06T03:01:27;3.05;;;1.77;;
59310;SDS011;45078;51.654;21.250;2023-05-06T03:03:53;4.90;;;2.00;;
59310;SDS011;45078;51.654;21.250;2023-05-06T03:06:19;3.33;;;1.67;;
59310;SDS011;45078;51.654;21.250;2023-05-06T03:08:45;2.75;;;1.75;;
59310;SDS011;45078;51.654;21.250;2023-05-06T03:11:10;2.70;;;1.88;;
59310;SDS011;45078;51.654;21.250;2023-05-06T03:13:36;2.58;;;1.45;;
59310;SDS011;45078;51.654;21.250;2023-05-06T03:16:02;3.13;;;1.50;;
59310;SDS011;45078;51.654;21.250;2023-05-06T03:18:28;3.08;;;1.90;;
59310;SDS011;45078;51.654;21.250;2023-05-06T03:20:53;6.25;;;2.05;;
59310;SDS011;45078;51.654;21.250;2023-05-06T03:23:19;4.57;;;1.67;;
59310;SDS011;45078;51.654;21.250;2023-05-06T03:25:45;4.43;;;1.73;;
59310;SDS011;45078;51.654;21.250;2023-05-06T03:28:11;3.65;;;1.58;;
59310;SDS011;45078;51.654;21.250;2023-05-06T03:30:37;3.15;;;1.92;;
59310;SDS011;45078;51.654;21.250;2023-05-06T03:33:03;3.10;;;1.85;;
59310;SDS011;45078;51.654;21.250;2023-05-06T03:35:29;4.30;;;1.65;;
59310;SDS011;45078;51.654;21.250;2023-05-06T03:37:54;3.35;;;1.65;;
59310;SDS011;45078;51.654;21.250;2023-05-06T03:40:20;2.67;;;1.48;;
59310;SDS011;45078;51.654;21.250;2023-05-06T03:42:46;4.13;;;1.80;;
59310;SDS011;45078;51.654;21.250;2023-05-06T03:45:12;5.95;;;1.73;;
59310;SDS011;45078;51.654;21.250;2023-05-06T03:47:38;3.28;;;1.70;;
59310;SDS011;45078;51.654;21.250;2023-05-06T03:50:03;4.80;;;2.20;;
59310;SDS011;45078;51.654;21.250;2023-05-06T03:52:29;6.32;;;2.00;;
59310;SDS011;45078;51.654;21.250;2023-05-06T03:54:55;2.85;;;1.83;;
59310;SDS011;45078;51.654;21.250;2023-05-06T03:57:21;2.78;;;1.70;;
59310;SDS011;45078;51.654;21.250;2023-05-06T03:59:47;2.65;;;1.60;;
59310;SDS011;45078;51.654;21.250;2023-05-06T04:02:13;3.35;;;1.92;;
59310;SDS011;45078;51.654;21.250;2023-05-06T04:04:38;5.82;;;1.90;;
59310;SDS011;45078;51.654;21.250;2023-05-06T04:07:04;3.58;;;1.98;;
59310;SDS011;45078;51.654;21.250;2023-05-06T04:09:30;5.70;;;1.67;;
59310;SDS011;45078;51.654;21.250;2023-05-06T04:11:57;4.85;;;1.80;;
59310;SDS011;45078;51.654;21.250;2023-05-06T04:14:23;3.03;;;1.60;;
59310;SDS011;45078;51.654;21.250;2023-05-06T04:16:48;2.55;;;1.40;;
59310;SDS011;45078;51.654;21.250;2023-05-06T04:19:14;4.63;;;1.50;;
59310;SDS011;45078;51.654;21.250;2023-05-06T04:21:41;2.83;;;1.48;;
59310;SDS011;45078;51.654;21.250;2023-05-06T04:24:07;2.97;;;1.45;;
59310;SDS011;45078;51.654;21.250;2023-05-06T04:26:33;2.78;;;1.52;;
59310;SDS011;45078;51.654;21.250;2023-05-06T04:28:59;2.63;;;1.60;;
59310;SDS011;45078;51.654;21.250;2023-05-06T04:31:25;3.88;;;1.60;;
59310;SDS011;45078;51.654;21.250;2023-05-06T04:33:52;3.13;;;1.55;;
59310;SDS011;45078;51.654;21.250;2023-05-06T04:36:18;1.80;;;1.25;;
59310;SDS011;45078;51.654;21.250;2023-05-06T04:38:44;2.03;;;1.30;;
59310;SDS011;45078;51.654;21.250;2023-05-06T04:41:11;2.90;;;1.63;;
59310;SDS011;45078;51.654;21.250;2023-05-06T04:43:38;3.00;;;1.65;;
59310;SDS011;45078;51.654;21.250;2023-05-06T04:46:04;3.05;;;1.40;;
59310;SDS011;45078;51.654;21.250;2023-05-06T04:48:29;2.72;;;1.60;;
59310;SDS011;45078;51.654;21.250;2023-05-06T04:50:56;4.05;;;1.20;;
59310;SDS011;45078;51.654;21.250;2023-05-06T04:53:21;4.78;;;1.42;;
59310;SDS011;45078;51.654;21.250;2023-05-06T04:55:47;3.58;;;1.67;;
59310;SDS011;45078;51.654;21.250;2023-05-06T04:58:13;3.92;;;1.30;;
59310;SDS011;45078;51.654;21.250;2023-05-06T05:00:39;1.65;;;1.15;;
59310;SDS011;45078;51.654;21.250;2023-05-06T05:03:04;3.40;;;1.67;;
59310;SDS011;45078;51.654;21.250;2023-05-06T05:05:30;4.88;;;1.15;;
59310;SDS011;45078;51.654;21.250;2023-05-06T05:07:57;3.92;;;1.15;;
59310;SDS011;45078;51.654;21.250;2023-05-06T05:10:23;2.28;;;1.30;;
59310;SDS011;45078;51.654;21.250;2023-05-06T05:12:49;2.75;;;1.17;;
59310;SDS011;45078;51.654;21.250;2023-05-06T05:15:15;2.38;;;1.20;;
59310;SDS011;45078;51.654;21.250;2023-05-06T05:17:41;2.90;;;1.38;;
59310;SDS011;45078;51.654;21.250;2023-05-06T05:20:07;1.67;;;0.95;;
59310;SDS011;45078;51.654;21.250;2023-05-06T05:22:33;1.90;;;1.20;;
59310;SDS011;45078;51.654;21.250;2023-05-06T05:24:58;2.63;;;1.65;;
59310;SDS011;45078;51.654;21.250;2023-05-06T05:27:24;2.00;;;1.10;;
59310;SDS011;45078;51.654;21.250;2023-05-06T05:29:50;3.90;;;1.38;;
59310;SDS011;45078;51.654;21.250;2023-05-06T05:32:16;6.65;;;1.48;;
59310;SDS011;45078;51.654;21.250;2023-05-06T05:34:41;2.45;;;1.38;;
59310;SDS011;45078;51.654;21.250;2023-05-06T05:37:07;2.08;;;1.17;;
59310;SDS011;45078;51.654;21.250;2023-05-06T05:39:34;1.95;;;1.20;;
59310;SDS011;45078;51.654;21.250;2023-05-06T05:41:59;3.75;;;1.13;;
59310;SDS011;45078;51.654;21.250;2023-05-06T05:44:26;6.57;;;1.95;;
59310;SDS011;45078;51.654;21.250;2023-05-06T05:46:52;2.13;;;1.30;;
59310;SDS011;45078;51.654;21.250;2023-05-06T05:49:17;2.13;;;1.50;;
59310;SDS011;45078;51.654;21.250;2023-05-06T05:51:43;10.45;;;1.70;;
59310;SDS011;45078;51.654;21.250;2023-05-06T05:54:09;3.15;;;1.08;;
59310;SDS011;45078;51.654;21.250;2023-05-06T05:56:35;1.48;;;0.95;;
59310;SDS011;45078;51.654;21.250;2023-05-06T05:59:00;2.35;;;1.30;;
59310;SDS011;45078;51.654;21.250;2023-05-06T06:01:26;4.03;;;1.25;;
59310;SDS011;45078;51.654;21.250;2023-05-06T06:03:52;2.75;;;1.30;;
59310;SDS011;45078;51.654;21.250;2023-05-06T06:06:18;2.80;;;1.63;;
59310;SDS011;45078;51.654;21.250;2023-05-06T06:08:44;2.10;;;1.33;;
59310;SDS011;45078;51.654;21.250;2023-05-06T06:11:10;2.15;;;1.25;;
59310;SDS011;45078;51.654;21.250;2023-05-06T06:13:36;4.68;;;1.40;;
59310;SDS011;45078;51.654;21.250;2023-05-06T06:16:02;2.22;;;1.27;;
59310;SDS011;45078;51.654;21.250;2023-05-06T06:18:28;2.78;;;1.38;;
59310;SDS011;45078;51.654;21.250;2023-05-06T06:20:54;2.13;;;1.10;;
59310;SDS011;45078;51.654;21.250;2023-05-06T06:23:20;2.85;;;1.48;;
59310;SDS011;45078;51.654;21.250;2023-05-06T06:25:46;2.08;;;1.15;;
59310;SDS011;45078;51.654;21.250;2023-05-06T06:28:12;5.53;;;1.30;;
59310;SDS011;45078;51.654;21.250;2023-05-06T06:30:37;1.55;;;1.10;;
59310;SDS011;45078;51.654;21.250;2023-05-06T06:33:03;4.25;;;1.65;;
59310;SDS011;45078;51.654;21.250;2023-05-06T06:35:29;2.17;;;1.35;;
59310;SDS011;45078;51.654;21.250;2023-05-06T06:37:55;3.10;;;1.40;;
59310;SDS011;45078;51.654;21.250;2023-05-06T06:40:21;3.25;;;1.30;;
59310;SDS011;45078;51.654;21.250;2023-05-06T06:42:47;2.28;;;1.45;;
59310;SDS011;45078;51.654;21.250;2023-05-06T06:45:12;2.42;;;1.25;;
59310;SDS011;45078;51.654;21.250;2023-05-06T06:47:39;1.98;;;1.30;;
59310;SDS011;45078;51.654;21.250;2023-05-06T06:50:06;2.50;;;1.63;;
59310;SDS011;45078;51.654;21.250;2023-05-06T06:52:33;3.05;;;1.20;;
59310;SDS011;45078;51.654;21.250;2023-05-06T06:54:59;4.28;;;1.38;;
59310;SDS011;45078;51.654;21.250;2023-05-06T06:57:25;1.92;;;1.17;;
59310;SDS011;45078;51.654;21.250;2023-05-06T06:59:52;2.90;;;1.77;;
59310;SDS011;45078;51.654;21.250;2023-05-06T07:02:21;5.35;;;1.52;;
59310;SDS011;45078;51.654;21.250;2023-05-06T07:04:47;3.38;;;1.20;;
59310;SDS011;45078;51.654;21.250;2023-05-06T07:07:13;1.60;;;1.10;;
59310;SDS011;45078;51.654;21.250;2023-05-06T07:09:39;4.97;;;1.27;;
59310;SDS011;45078;51.654;21.250;2023-05-06T07:12:05;2.72;;;1.52;;
59310;SDS011;45078;51.654;21.250;2023-05-06T07:14:31;4.60;;;1.42;;
59310;SDS011;45078;51.654;21.250;2023-05-06T07:16:57;5.45;;;1.55;;
59310;SDS011;45078;51.654;21.250;2023-05-06T07:19:25;2.75;;;1.40;;
59310;SDS011;45078;51.654;21.250;2023-05-06T07:21:51;6.15;;;1.58;;
59310;SDS011;45078;51.654;21.250;2023-05-06T07:24:17;5.55;;;1.52;;
59310;SDS011;45078;51.654;21.250;2023-05-06T07:26:43;2.30;;;1.23;;
59310;SDS011;45078;51.654;21.250;2023-05-06T07:29:09;3.60;;;1.00;;
59310;SDS011;45078;51.654;21.250;2023-05-06T07:31:34;2.45;;;1.77;;
59310;SDS011;45078;51.654;21.250;2023-05-06T07:34:00;2.33;;;1.20;;
59310;SDS011;45078;51.654;21.250;2023-05-06T07:36:26;4.85;;;1.65;;
59310;SDS011;45078;51.654;21.250;2023-05-06T07:38:52;2.03;;;1.25;;
59310;SDS011;45078;51.654;21.250;2023-05-06T07:41:18;3.90;;;1.73;;
59310;SDS011;45078;51.654;21.250;2023-05-06T07:43:45;3.63;;;1.17;;
59310;SDS011;45078;51.654;21.250;2023-05-06T07:46:11;2.90;;;1.42;;
59310;SDS011;45078;51.654;21.250;2023-05-06T07:48:36;2.35;;;1.20;;
59310;SDS011;45078;51.654;21.250;2023-05-06T07:51:02;2.10;;;1.25;;
59310;SDS011;45078;51.654;21.250;2023-05-06T07:53:28;1.98;;;1.30;;
59310;SDS011;45078;51.654;21.250;2023-05-06T07:55:56;3.33;;;1.40;;
59310;SDS011;45078;51.654;21.250;2023-05-06T07:58:26;3.05;;;1.60;;
59310;SDS011;45078;51.654;21.250;2023-05-06T08:00:54;3.83;;;1.35;;
59310;SDS011;45078;51.654;21.250;2023-05-06T08:03:20;2.78;;;1.63;;
59310;SDS011;45078;51.654;21.250;2023-05-06T08:05:46;1.95;;;1.20;;
59310;SDS011;45078;51.654;21.250;2023-05-06T08:08:14;2.58;;;1.30;;
59310;SDS011;45078;51.654;21.250;2023-05-06T08:10:39;2.10;;;1.13;;
59310;SDS011;45078;51.654;21.250;2023-05-06T08:13:05;2.92;;;1.35;;
59310;SDS011;45078;51.654;21.250;2023-05-06T08:15:31;2.78;;;1.42;;
59310;SDS011;45078;51.654;21.250;2023-05-06T08:17:56;3.17;;;1.40;;
59310;SDS011;45078;51.654;21.250;2023-05-06T08:20:22;5.07;;;1.80;;
59310;SDS011;45078;51.654;21.250;2023-05-06T08:22:48;2.70;;;1.50;;
59310;SDS011;45078;51.654;21.250;2023-05-06T08:25:14;3.97;;;1.77;;
59310;SDS011;45078;51.654;21.250;2023-05-06T08:27:40;7.28;;;1.75;;
59310;SDS011;45078;51.654;21.250;2023-05-06T08:30:07;3.05;;;1.60;;
59310;SDS011;45078;51.654;21.250;2023-05-06T08:32:33;2.22;;;1.20;;
59310;SDS011;45078;51.654;21.250;2023-05-06T08:34:59;2.50;;;1.40;;
59310;SDS011;45078;51.654;21.250;2023-05-06T08:37:25;2.45;;;1.40;;
59310;SDS011;45078;51.654;21.250;2023-05-06T08:39:51;3.15;;;1.40;;
59310;SDS011;45078;51.654;21.250;2023-05-06T08:42:17;4.82;;;1.30;;
59310;SDS011;45078;51.654;21.250;2023-05-06T08:44:42;3.05;;;1.25;;
59310;SDS011;45078;51.654;21.250;2023-05-06T08:47:08;5.00;;;1.73;;
59310;SDS011;45078;51.654;21.250;2023-05-06T08:49:34;2.13;;;1.45;;
59310;SDS011;45078;51.654;21.250;2023-05-06T08:52:03;2.75;;;1.08;;
59310;SDS011;45078;51.654;21.250;2023-05-06T08:54:29;1.73;;;1.17;;
59310;SDS011;45078;51.654;21.250;2023-05-06T08:56:59;2.45;;;1.50;;
59310;SDS011;45078;51.654;21.250;2023-05-06T08:59:35;8.18;;;1.45;;
59310;SDS011;45078;51.654;21.250;2023-05-06T09:02:01;1.42;;;1.00;;
59310;SDS011;45078;51.654;21.250;2023-05-06T09:04:30;3.33;;;1.60;;
59310;SDS011;45078;51.654;21.250;2023-05-06T09:06:56;3.50;;;1.25;;
59310;SDS011;45078;51.654;21.250;2023-05-06T09:09:23;3.03;;;1.50;;
59310;SDS011;45078;51.654;21.250;2023-05-06T09:11:49;2.42;;;1.45;;
59310;SDS011;45078;51.654;21.250;2023-05-06T09:14:21;2.50;;;1.30;;
59310;SDS011;45078;51.654;21.250;2023-05-06T09:16:48;3.40;;;1.42;;
59310;SDS011;45078;51.654;21.250;2023-05-06T09:19:15;3.38;;;1.48;;
59310;SDS011;45078;51.654;21.250;2023-05-06T09:21:43;2.45;;;1.45;;
59310;SDS011;45078;51.654;21.250;2023-05-06T09:24:11;3.53;;;1.33;;
59310;SDS011;45078;51.654;21.250;2023-05-06T09:26:39;2.15;;;1.30;;
59310;SDS011;45078;51.654;21.250;2023-05-06T09:29:07;3.60;;;1.45;;
59310;SDS011;45078;51.654;21.250;2023-05-06T09:31:38;2.40;;;1.30;;
59310;SDS011;45078;51.654;21.250;2023-05-06T09:34:06;9.45;;;2.10;;
59310;SDS011;45078;51.654;21.250;2023-05-06T09:36:32;5.53;;;1.77;;
59310;SDS011;45078;51.654;21.250;2023-05-06T09:38:58;2.25;;;1.52;;
59310;SDS011;45078;51.654;21.250;2023-05-06T09:41:24;3.15;;;1.60;;
59310;SDS011;45078;51.654;21.250;2023-05-06T09:43:52;7.45;;;2.80;;
59310;SDS011;45078;51.654;21.250;2023-05-06T09:46:22;3.75;;;2.00;;
59310;SDS011;45078;51.654;21.250;2023-05-06T09:48:50;4.82;;;3.25;;
59310;SDS011;45078;51.654;21.250;2023-05-06T09:51:18;3.53;;;1.58;;
59310;SDS011;45078;51.654;21.250;2023-05-06T09:53:45;4.55;;;1.63;;
59310;SDS011;45078;51.654;21.250;2023-05-06T09:56:12;4.47;;;1.92;;
59310;SDS011;45078;51.654;21.250;2023-05-06T09:58:38;9.13;;;1.90;;
59310;SDS011;45078;51.654;21.250;2023-05-06T10:01:05;2.85;;;1.60;;
59310;SDS011;45078;51.654;21.250;2023-05-06T10:03:32;2.70;;;1.73;;
59310;SDS011;45078;51.654;21.250;2023-05-06T10:05:59;4.85;;;1.67;;
59310;SDS011;45078;51.654;21.250;2023-05-06T10:08:26;13.70;;;2.50;;
59310;SDS011;45078;51.654;21.250;2023-05-06T10:10:53;8.32;;;1.92;;
59310;SDS011;45078;51.654;21.250;2023-05-06T10:13:20;15.45;;;2.20;;
59310;SDS011;45078;51.654;21.250;2023-05-06T10:15:48;6.82;;;2.05;;
59310;SDS011;45078;51.654;21.250;2023-05-06T10:18:14;3.28;;;1.40;;
59310;SDS011;45078;51.654;21.250;2023-05-06T10:20:42;13.88;;;1.80;;
59310;SDS011;45078;51.654;21.250;2023-05-06T10:26:10;9.60;;;2.28;;
59310;SDS011;45078;51.654;21.250;2023-05-06T10:28:38;5.80;;;2.15;;
59310;SDS011;45078;51.654;21.250;2023-05-06T10:31:07;7.82;;;2.20;;
59310;SDS011;45078;51.654;21.250;2023-05-06T10:33:43;4.10;;;1.70;;
59310;SDS011;45078;51.654;21.250;2023-05-06T10:36:18;3.90;;;1.77;;
59310;SDS011;45078;51.654;21.250;2023-05-06T10:38:52;2.80;;;1.42;;
59310;SDS011;45078;51.654;21.250;2023-05-06T10:41:22;3.35;;;1.25;;
59310;SDS011;45078;51.654;21.250;2023-05-06T10:43:51;5.63;;;2.38;;
59310;SDS011;45078;51.654;21.250;2023-05-06T10:46:21;3.38;;;1.88;;
59310;SDS011;45078;51.654;21.250;2023-05-06T10:51:32;6.40;;;2.95;;
59310;SDS011;45078;51.654;21.250;2023-05-06T10:59:43;3.58;;;1.88;;
59310;SDS011;45078;51.654;21.250;2023-05-06T11:02:13;12.20;;;1.80;;
59310;SDS011;45078;51.654;21.250;2023-05-06T11:04:48;1.52;;;1.05;;
59310;SDS011;45078;51.654;21.250;2023-05-06T11:07:20;3.38;;;1.50;;
59310;SDS011;45078;51.654;21.250;2023-05-06T11:10:00;5.50;;;2.15;;
59310;SDS011;45078;51.654;21.250;2023-05-06T11:18:39;7.40;;;1.80;;
59310;SDS011;45078;51.654;21.250;2023-05-06T11:26:18;5.15;;;1.50;;
59310;SDS011;45078;51.654;21.250;2023-05-06T11:28:44;7.28;;;1.35;;
59310;SDS011;45078;51.654;21.250;2023-05-06T11:31:11;6.57;;;1.30;;
59310;SDS011;45078;51.654;21.250;2023-05-06T11:33:44;2.00;;;1.20;;
59310;SDS011;45078;51.654;21.250;2023-05-06T11:36:15;5.55;;;1.38;;
59310;SDS011;45078;51.654;21.250;2023-05-06T11:41:12;3.53;;;1.38;;
59310;SDS011;45078;51.654;21.250;2023-05-06T11:43:38;1.95;;;1.10;;
59310;SDS011;45078;51.654;21.250;2023-05-06T11:46:04;3.38;;;1.70;;
59310;SDS011;45078;51.654;21.250;2023-05-06T11:48:30;3.30;;;1.55;;
59310;SDS011;45078;51.654;21.250;2023-05-06T11:50:56;11.40;;;2.05;;
59310;SDS011;45078;51.654;21.250;2023-05-06T11:53:22;4.85;;;1.52;;
59310;SDS011;45078;51.654;21.250;2023-05-06T11:55:48;3.45;;;1.80;;
59310;SDS011;45078;51.654;21.250;2023-05-06T11:58:24;7.55;;;1.70;;
59310;SDS011;45078;51.654;21.250;2023-05-06T12:00:58;3.38;;;1.42;;
59310;SDS011;45078;51.654;21.250;2023-05-06T12:03:25;4.15;;;1.60;;
59310;SDS011;45078;51.654;21.250;2023-05-06T12:05:53;6.07;;;2.03;;
59310;SDS011;45078;51.654;21.250;2023-05-06T12:08:20;3.10;;;1.50;;
59310;SDS011;45078;51.654;21.250;2023-05-06T12:10:48;5.82;;;1.70;;
59310;SDS011;45078;51.654;21.250;2023-05-06T12:13:15;5.32;;;1.77;;
59310;SDS011;45078;51.654;21.250;2023-05-06T12:15:42;4.32;;;1.30;;
59310;SDS011;45078;51.654;21.250;2023-05-06T12:18:09;2.10;;;1.33;;
59310;SDS011;45078;51.654;21.250;2023-05-06T12:20:36;2.85;;;1.60;;
59310;SDS011;45078;51.654;21.250;2023-05-06T12:23:06;6.30;;;2.00;;
59310;SDS011;45078;51.654;21.250;2023-05-06T12:25:36;5.93;;;1.48;;
59310;SDS011;45078;51.654;21.250;2023-05-06T12:28:14;2.85;;;1.50;;
59310;SDS011;45078;51.654;21.250;2023-05-06T12:30:41;5.70;;;1.67;;
59310;SDS011;45078;51.654;21.250;2023-05-06T12:33:08;2.55;;;1.50;;
59310;SDS011;45078;51.654;21.250;2023-05-06T12:35:35;2.85;;;1.40;;
59310;SDS011;45078;51.654;21.250;2023-05-06T12:38:08;5.68;;;1.60;;
59310;SDS011;45078;51.654;21.250;2023-05-06T12:43:00;2.88;;;1.45;;
59310;SDS011;45078;51.654;21.250;2023-05-06T12:45:26;7.95;;;2.00;;
59310;SDS011;45078;51.654;21.250;2023-05-06T12:47:53;3.58;;;1.70;;
59310;SDS011;45078;51.654;21.250;2023-05-06T12:53:06;3.45;;;1.73;;
59310;SDS011;45078;51.654;21.250;2023-05-06T12:55:34;2.47;;;1.50;;
59310;SDS011;45078;51.654;21.250;2023-05-06T12:58:01;2.63;;;1.35;;
59310;SDS011;45078;51.654;21.250;2023-05-06T13:00:27;5.85;;;1.88;;
59310;SDS011;45078;51.654;21.250;2023-05-06T13:02:53;7.15;;;1.60;;
59310;SDS011;45078;51.654;21.250;2023-05-06T13:05:19;6.80;;;1.80;;
59310;SDS011;45078;51.654;21.250;2023-05-06T13:07:45;6.07;;;1.90;;
59310;SDS011;45078;51.654;21.250;2023-05-06T13:10:12;5.88;;;1.70;;
59310;SDS011;45078;51.654;21.250;2023-05-06T13:12:38;2.67;;;1.35;;
59310;SDS011;45078;51.654;21.250;2023-05-06T13:15:03;3.15;;;1.55;;
59310;SDS011;45078;51.654;21.250;2023-05-06T13:17:29;4.60;;;1.70;;
59310;SDS011;45078;51.654;21.250;2023-05-06T13:19:56;3.78;;;1.60;;
59310;SDS011;45078;51.654;21.250;2023-05-06T13:22:22;5.32;;;2.30;;
59310;SDS011;45078;51.654;21.250;2023-05-06T13:24:48;5.88;;;1.90;;
59310;SDS011;45078;51.654;21.250;2023-05-06T13:27:14;5.95;;;1.85;;
59310;SDS011;45078;51.654;21.250;2023-05-06T13:29:40;4.18;;;1.40;;
59310;SDS011;45078;51.654;21.250;2023-05-06T13:32:06;3.53;;;1.40;;
59310;SDS011;45078;51.654;21.250;2023-05-06T13:34:32;2.60;;;1.40;;
59310;SDS011;45078;51.654;21.250;2023-05-06T13:36:58;2.90;;;1.33;;
59310;SDS011;45078;51.654;21.250;2023-05-06T13:39:24;2.42;;;1.63;;
59310;SDS011;45078;51.654;21.250;2023-05-06T13:41:50;5.03;;;2.10;;
59310;SDS011;45078;51.654;21.250;2023-05-06T13:44:16;3.92;;;1.83;;
59310;SDS011;45078;51.654;21.250;2023-05-06T13:46:43;4.60;;;1.63;;
59310;SDS011;45078;51.654;21.250;2023-05-06T13:49:09;4.18;;;1.60;;
59310;SDS011;45078;51.654;21.250;2023-05-06T13:51:35;4.25;;;1.83;;
59310;SDS011;45078;51.654;21.250;2023-05-06T13:54:01;6.00;;;1.83;;
59310;SDS011;45078;51.654;21.250;2023-05-06T13:56:28;3.70;;;1.45;;
59310;SDS011;45078;51.654;21.250;2023-05-06T13:58:54;5.00;;;2.38;;
59310;SDS011;45078;51.654;21.250;2023-05-06T14:01:20;5.88;;;2.03;;
59310;SDS011;45078;51.654;21.250;2023-05-06T14:03:46;4.85;;;1.70;;
59310;SDS011;45078;51.654;21.250;2023-05-06T14:06:12;3.85;;;1.80;;
59310;SDS011;45078;51.654;21.250;2023-05-06T14:08:39;3.20;;;1.70;;
59310;SDS011;45078;51.654;21.250;2023-05-06T14:11:05;3.67;;;1.63;;
59310;SDS011;45078;51.654;21.250;2023-05-06T14:13:32;3.13;;;1.83;;
59310;SDS011;45078;51.654;21.250;2023-05-06T14:15:58;3.67;;;2.05;;
59310;SDS011;45078;51.654;21.250;2023-05-06T14:18:27;7.63;;;1.85;;
59310;SDS011;45078;51.654;21.250;2023-05-06T14:20:55;4.35;;;2.08;;
59310;SDS011;45078;51.654;21.250;2023-05-06T14:23:21;4.88;;;2.38;;
59310;SDS011;45078;51.654;21.250;2023-05-06T14:25:47;4.30;;;2.00;;
59310;SDS011;45078;51.654;21.250;2023-05-06T14:28:12;5.82;;;2.10;;
59310;SDS011;45078;51.654;21.250;2023-05-06T14:30:39;5.25;;;2.50;;
59310;SDS011;45078;51.654;21.250;2023-05-06T14:33:05;7.93;;;2.15;;
59310;SDS011;45078;51.654;21.250;2023-05-06T14:35:32;4.78;;;2.28;;
59310;SDS011;45078;51.654;21.250;2023-05-06T14:37:58;6.40;;;2.00;;
59310;SDS011;45078;51.654;21.250;2023-05-06T14:40:24;8.63;;;2.35;;
59310;SDS011;45078;51.654;21.250;2023-05-06T14:42:49;6.65;;;2.42;;
59310;SDS011;45078;51.654;21.250;2023-05-06T14:45:17;6.05;;;2.58;;
59310;SDS011;45078;51.654;21.250;2023-05-06T14:47:43;3.70;;;2.25;;
59310;SDS011;45078;51.654;21.250;2023-05-06T14:50:10;7.90;;;2.50;;
59310;SDS011;45078;51.654;21.250;2023-05-06T14:52:37;3.63;;;2.15;;
59310;SDS011;45078;51.654;21.250;2023-05-06T14:55:04;4.85;;;2.60;;
59310;SDS011;45078;51.654;21.250;2023-05-06T14:57:32;5.53;;;2.35;;
59310;SDS011;45078;51.654;21.250;2023-05-06T14:59:57;5.70;;;2.88;;
59310;SDS011;45078;51.654;21.250;2023-05-06T15:02:23;6.68;;;2.55;;
59310;SDS011;45078;51.654;21.250;2023-05-06T15:04:49;8.05;;;2.90;;
59310;SDS011;45078;51.654;21.250;2023-05-06T15:07:16;10.32;;;3.05;;
59310;SDS011;45078;51.654;21.250;2023-05-06T15:09:41;9.52;;;3.08;;
59310;SDS011;45078;51.654;21.250;2023-05-06T15:12:10;6.35;;;3.00;;
59310;SDS011;45078;51.654;21.250;2023-05-06T15:14:36;8.80;;;3.03;;